sensor_id;sensor_type;location;lat;lon;timestamp;pressure;altitude;pressure_sealevel;temperature;humidity
74915;BME280;63475;45.140;-75.616;2023-06-14T00:00:43;99416.63;;;20.78;49.38
74915;BME280;63475;45.140;-75.616;2023-06-14T00:01:46;99417.88;;;20.75;49.39
74915;BME280;63475;45.140;-75.616;2023-06-14T00:02:49;99421.81;;;20.73;49.27
74915;BME280;63475;45.140;-75.616;2023-06-14T00:03:52;99418.47;;;20.71;49.53
74915;BME280;63475;45.140;-75.616;2023-06-14T00:04:56;99424.69;;;20.64;49.50
74915;BME280;63475;45.140;-75.616;2023-06-14T00:05:59;99424.47;;;20.59;49.85
74915;BME280;63475;45.140;-75.616;2023-06-14T00:07:02;99431.34;;;20.55;49.92
74915;BME280;63475;45.140;-75.616;2023-06-14T00:08:05;99432.56;;;20.53;49.61
74915;BME280;63475;45.140;-75.616;2023-06-14T00:09:09;99425.28;;;20.53;49.43
74915;BME280;63475;45.140;-75.616;2023-06-14T00:10:12;99432.94;;;20.50;49.77
74915;BME280;63475;45.140;-75.616;2023-06-14T00:11:15;99426.66;;;20.43;49.86
74915;BME280;63475;45.140;-75.616;2023-06-14T00:12:17;99428.75;;;20.41;50.09
74915;BME280;63475;45.140;-75.616;2023-06-14T00:13:20;99427.06;;;20.40;49.60
74915;BME280;63475;45.140;-75.616;2023-06-14T00:14:23;99425.81;;;20.36;49.60
74915;BME280;63475;45.140;-75.616;2023-06-14T00:15:26;99421.81;;;20.31;50.00
74915;BME280;63475;45.140;-75.616;2023-06-14T00:16:29;99428.66;;;20.27;50.21
74915;BME280;63475;45.140;-75.616;2023-06-14T00:17:32;99430.94;;;20.24;50.34
74915;BME280;63475;45.140;-75.616;2023-06-14T00:18:36;99433.19;;;20.20;50.20
74915;BME280;63475;45.140;-75.616;2023-06-14T00:19:39;99433.63;;;20.17;50.52
74915;BME280;63475;45.140;-75.616;2023-06-14T00:20:42;99443.81;;;20.15;50.73
74915;BME280;63475;45.140;-75.616;2023-06-14T00:21:45;99438.16;;;20.10;50.55
74915;BME280;63475;45.140;-75.616;2023-06-14T00:22:48;99434.81;;;20.08;50.20
74915;BME280;63475;45.140;-75.616;2023-06-14T00:23:51;99444.53;;;20.03;50.37
74915;BME280;63475;45.140;-75.616;2023-06-14T00:24:54;99446.16;;;19.97;50.64
74915;BME280;63475;45.140;-75.616;2023-06-14T00:25:57;99450.13;;;19.94;50.58
74915;BME280;63475;45.140;-75.616;2023-06-14T00:27:00;99439.69;;;19.91;50.52
74915;BME280;63475;45.140;-75.616;2023-06-14T00:28:03;99456.31;;;19.88;50.42
74915;BME280;63475;45.140;-75.616;2023-06-14T00:29:05;99448.34;;;19.80;50.63
74915;BME280;63475;45.140;-75.616;2023-06-14T00:30:08;99451.44;;;19.77;50.72
74915;BME280;63475;45.140;-75.616;2023-06-14T00:31:11;99449.97;;;19.75;50.66
74915;BME280;63475;45.140;-75.616;2023-06-14T00:32:14;99447.47;;;19.73;50.43
74915;BME280;63475;45.140;-75.616;2023-06-14T00:33:17;99452.41;;;19.70;50.34
74915;BME280;63475;45.140;-75.616;2023-06-14T00:34:19;99452.97;;;19.65;50.33
74915;BME280;63475;45.140;-75.616;2023-06-14T00:35:22;99461.50;;;19.62;50.33
74915;BME280;63475;45.140;-75.616;2023-06-14T00:36:25;99460.00;;;19.59;50.36
74915;BME280;63475;45.140;-75.616;2023-06-14T00:37:27;99460.00;;;19.59;50.23
74915;BME280;63475;45.140;-75.616;2023-06-14T00:38:30;99461.63;;;19.54;50.37
74915;BME280;63475;45.140;-75.616;2023-06-14T00:39:33;99458.50;;;19.50;50.48
74915;BME280;63475;45.140;-75.616;2023-06-14T00:40:37;99458.88;;;19.47;50.60
74915;BME280;63475;45.140;-75.616;2023-06-14T00:41:39;99461.13;;;19.44;50.50
74915;BME280;63475;45.140;-75.616;2023-06-14T00:42:42;99459.19;;;19.38;50.52
74915;BME280;63475;45.140;-75.616;2023-06-14T00:43:45;99459.56;;;19.35;50.79
74915;BME280;63475;45.140;-75.616;2023-06-14T00:44:47;99454.13;;;19.28;50.86
74915;BME280;63475;45.140;-75.616;2023-06-14T00:45:50;99454.88;;;19.22;51.03
74915;BME280;63475;45.140;-75.616;2023-06-14T00:46:53;99456.94;;;19.20;50.98
74915;BME280;63475;45.140;-75.616;2023-06-14T00:47:56;99461.03;;;19.16;50.99
74915;BME280;63475;45.140;-75.616;2023-06-14T00:49:00;99454.53;;;19.10;51.25
74915;BME280;63475;45.140;-75.616;2023-06-14T00:50:06;99464.31;;;19.11;51.09
74915;BME280;63475;45.140;-75.616;2023-06-14T00:51:09;99455.94;;;19.06;51.35
74915;BME280;63475;45.140;-75.616;2023-06-14T00:52:13;99460.91;;;19.03;51.67
74915;BME280;63475;45.140;-75.616;2023-06-14T00:53:17;99461.28;;;19.00;51.52
74915;BME280;63475;45.140;-75.616;2023-06-14T00:54:25;99462.69;;;18.95;51.58
74915;BME280;63475;45.140;-75.616;2023-06-14T00:55:28;99466.63;;;18.93;51.63
74915;BME280;63475;45.140;-75.616;2023-06-14T00:56:32;99461.59;;;18.90;51.75
74915;BME280;63475;45.140;-75.616;2023-06-14T00:57:35;99458.59;;;18.85;51.80
74915;BME280;63475;45.140;-75.616;2023-06-14T00:58:40;99465.22;;;18.82;52.20
74915;BME280;63475;45.140;-75.616;2023-06-14T00:59:47;99458.53;;;18.78;52.41
74915;BME280;63475;45.140;-75.616;2023-06-14T01:00:51;99464.31;;;18.75;52.66
74915;BME280;63475;45.140;-75.616;2023-06-14T01:01:53;99463.00;;;18.71;53.33
74915;BME280;63475;45.140;-75.616;2023-06-14T01:02:56;99460.66;;;18.68;53.71
74915;BME280;63475;45.140;-75.616;2023-06-14T01:04:00;99464.78;;;18.64;53.38
74915;BME280;63475;45.140;-75.616;2023-06-14T01:05:04;99457.03;;;18.61;54.09
74915;BME280;63475;45.140;-75.616;2023-06-14T01:06:40;99465.53;;;18.58;54.68
74915;BME280;63475;45.140;-75.616;2023-06-14T01:09:37;99469.38;;;18.49;55.47
74915;BME280;63475;45.140;-75.616;2023-06-14T01:10:59;99472.81;;;18.43;55.50
74915;BME280;63475;45.140;-75.616;2023-06-14T01:12:31;99481.66;;;18.37;55.88
74915;BME280;63475;45.140;-75.616;2023-06-14T01:13:42;99482.41;;;18.30;56.21
74915;BME280;63475;45.140;-75.616;2023-06-14T01:14:47;99478.41;;;18.26;56.09
74915;BME280;63475;45.140;-75.616;2023-06-14T01:15:51;99476.44;;;18.20;56.57
74915;BME280;63475;45.140;-75.616;2023-06-14T01:16:55;99476.34;;;18.14;56.31
74915;BME280;63475;45.140;-75.616;2023-06-14T01:17:59;99481.94;;;18.12;56.22
74915;BME280;63475;45.140;-75.616;2023-06-14T01:19:06;99482.50;;;18.08;55.97
74915;BME280;63475;45.140;-75.616;2023-06-14T01:20:16;99484.88;;;18.03;55.49
74915;BME280;63475;45.140;-75.616;2023-06-14T01:21:21;99480.19;;;17.96;55.54
74915;BME280;63475;45.140;-75.616;2023-06-14T01:22:26;99480.75;;;17.92;56.18
74915;BME280;63475;45.140;-75.616;2023-06-14T01:23:29;99483.81;;;17.89;56.27
74915;BME280;63475;45.140;-75.616;2023-06-14T01:24:35;99473.41;;;17.86;55.82
74915;BME280;63475;45.140;-75.616;2023-06-14T01:25:38;99477.84;;;17.79;55.90
74915;BME280;63475;45.140;-75.616;2023-06-14T01:26:41;99473.81;;;17.75;55.48
74915;BME280;63475;45.140;-75.616;2023-06-14T01:27:55;99478.28;;;17.68;55.43
74915;BME280;63475;45.140;-75.616;2023-06-14T01:28:59;99478.66;;;17.65;55.72
74915;BME280;63475;45.140;-75.616;2023-06-14T01:30:02;99470.09;;;17.61;55.31
74915;BME280;63475;45.140;-75.616;2023-06-14T01:31:06;99481.88;;;17.60;55.77
74915;BME280;63475;45.140;-75.616;2023-06-14T01:32:09;99477.38;;;17.52;55.50
74915;BME280;63475;45.140;-75.616;2023-06-14T01:33:14;99474.22;;;17.49;55.88
74915;BME280;63475;45.140;-75.616;2023-06-14T01:34:17;99480.16;;;17.44;55.62
74915;BME280;63475;45.140;-75.616;2023-06-14T01:35:20;99478.50;;;17.43;55.65
74915;BME280;63475;45.140;-75.616;2023-06-14T01:36:23;99474.28;;;17.41;55.88
74915;BME280;63475;45.140;-75.616;2023-06-14T01:37:28;99475.00;;;17.35;56.13
74915;BME280;63475;45.140;-75.616;2023-06-14T01:38:32;99474.53;;;17.31;56.41
74915;BME280;63475;45.140;-75.616;2023-06-14T01:39:35;99473.19;;;17.27;56.19
74915;BME280;63475;45.140;-75.616;2023-06-14T01:40:39;99480.25;;;17.28;56.23
74915;BME280;63475;45.140;-75.616;2023-06-14T01:41:43;99478.97;;;17.24;55.95
74915;BME280;63475;45.140;-75.616;2023-06-14T01:42:49;99482.03;;;17.21;55.84
74915;BME280;63475;45.140;-75.616;2023-06-14T01:43:52;99482.38;;;17.18;55.87
74915;BME280;63475;45.140;-75.616;2023-06-14T01:44:57;99480.88;;;17.15;55.87
74915;BME280;63475;45.140;-75.616;2023-06-14T01:46:00;99481.41;;;17.11;55.85
74915;BME280;63475;45.140;-75.616;2023-06-14T01:47:03;99480.03;;;17.07;56.46
74915;BME280;63475;45.140;-75.616;2023-06-14T01:48:07;99482.06;;;17.05;56.52
74915;BME280;63475;45.140;-75.616;2023-06-14T01:49:10;99482.47;;;17.02;56.38
74915;BME280;63475;45.140;-75.616;2023-06-14T01:50:13;99484.50;;;17.00;56.41
74915;BME280;63475;45.140;-75.616;2023-06-14T01:51:16;99487.53;;;16.97;56.44
74915;BME280;63475;45.140;-75.616;2023-06-14T01:52:19;99487.69;;;16.95;57.60
74915;BME280;63475;45.140;-75.616;2023-06-14T01:53:21;99485.19;;;16.93;57.81
74915;BME280;63475;45.140;-75.616;2023-06-14T01:54:24;99489.72;;;16.93;58.68
74915;BME280;63475;45.140;-75.616;2023-06-14T01:55:28;99485.53;;;16.90;58.87
74915;BME280;63475;45.140;-75.616;2023-06-14T01:56:30;99481.50;;;16.86;58.44
74915;BME280;63475;45.140;-75.616;2023-06-14T01:57:33;99486.41;;;16.83;58.95
74915;BME280;63475;45.140;-75.616;2023-06-14T01:58:36;99486.59;;;16.81;58.98
74915;BME280;63475;45.140;-75.616;2023-06-14T01:59:39;99485.63;;;16.74;58.79
74915;BME280;63475;45.140;-75.616;2023-06-14T02:00:41;99477.91;;;16.71;59.21
74915;BME280;63475;45.140;-75.616;2023-06-14T02:01:45;99484.63;;;16.67;58.92
74915;BME280;63475;45.140;-75.616;2023-06-14T02:02:48;99478.94;;;16.62;59.24
74915;BME280;63475;45.140;-75.616;2023-06-14T02:03:51;99484.66;;;16.59;59.42
74915;BME280;63475;45.140;-75.616;2023-06-14T02:04:54;99485.03;;;16.56;59.23
74915;BME280;63475;45.140;-75.616;2023-06-14T02:05:59;99484.53;;;16.52;59.56
74915;BME280;63475;45.140;-75.616;2023-06-14T02:07:02;99482.03;;;16.51;59.41
74915;BME280;63475;45.140;-75.616;2023-06-14T02:08:06;99477.00;;;16.48;59.51
74915;BME280;63475;45.140;-75.616;2023-06-14T02:09:09;99476.66;;;16.43;59.54
74915;BME280;63475;45.140;-75.616;2023-06-14T02:10:13;99484.25;;;16.39;59.70
74915;BME280;63475;45.140;-75.616;2023-06-14T02:11:17;99481.88;;;16.36;60.48
74915;BME280;63475;45.140;-75.616;2023-06-14T02:12:19;99482.09;;;16.35;60.56
74915;BME280;63475;45.140;-75.616;2023-06-14T02:13:22;99479.75;;;16.32;60.38
74915;BME280;63475;45.140;-75.616;2023-06-14T02:14:25;99480.09;;;16.29;60.54
74915;BME280;63475;45.140;-75.616;2023-06-14T02:15:28;99479.41;;;16.26;60.71
74915;BME280;63475;45.140;-75.616;2023-06-14T02:16:36;99481.44;;;16.24;60.90
74915;BME280;63475;45.140;-75.616;2023-06-14T02:17:39;99479.09;;;16.21;61.26
74915;BME280;63475;45.140;-75.616;2023-06-14T02:18:42;99474.22;;;16.17;61.31
74915;BME280;63475;45.140;-75.616;2023-06-14T02:19:45;99475.53;;;16.13;61.25
74915;BME280;63475;45.140;-75.616;2023-06-14T02:20:48;99473.22;;;16.10;61.04
74915;BME280;63475;45.140;-75.616;2023-06-14T02:21:50;99470.03;;;16.06;61.58
74915;BME280;63475;45.140;-75.616;2023-06-14T02:22:53;99480.44;;;16.01;61.43
74915;BME280;63475;45.140;-75.616;2023-06-14T02:23:56;99467.34;;;15.98;61.71
74915;BME280;63475;45.140;-75.616;2023-06-14T02:25:00;99472.06;;;15.96;61.81
74915;BME280;63475;45.140;-75.616;2023-06-14T02:26:03;99468.84;;;15.92;61.68
74915;BME280;63475;45.140;-75.616;2023-06-14T02:27:06;99473.41;;;15.92;62.46
74915;BME280;63475;45.140;-75.616;2023-06-14T02:28:10;99474.41;;;15.91;62.48
74915;BME280;63475;45.140;-75.616;2023-06-14T02:29:13;99469.56;;;15.86;62.29
74915;BME280;63475;45.140;-75.616;2023-06-14T02:30:17;99471.75;;;15.83;62.30
74915;BME280;63475;45.140;-75.616;2023-06-14T02:31:19;99469.41;;;15.80;62.32
74915;BME280;63475;45.140;-75.616;2023-06-14T02:32:22;99474.44;;;15.75;62.46
74915;BME280;63475;45.140;-75.616;2023-06-14T02:33:25;99466.03;;;15.70;62.45
74915;BME280;63475;45.140;-75.616;2023-06-14T02:34:28;99468.88;;;15.68;62.53
74915;BME280;63475;45.140;-75.616;2023-06-14T02:35:30;99468.41;;;15.65;62.54
74915;BME280;63475;45.140;-75.616;2023-06-14T02:36:33;99469.06;;;15.58;62.48
74915;BME280;63475;45.140;-75.616;2023-06-14T02:37:36;99466.38;;;15.58;62.47
74915;BME280;63475;45.140;-75.616;2023-06-14T02:38:38;99464.19;;;15.54;62.31
74915;BME280;63475;45.140;-75.616;2023-06-14T02:39:41;99466.72;;;15.47;62.29
74915;BME280;63475;45.140;-75.616;2023-06-14T02:40:44;99469.56;;;15.46;62.76
74915;BME280;63475;45.140;-75.616;2023-06-14T02:41:46;99468.25;;;15.42;62.62
74915;BME280;63475;45.140;-75.616;2023-06-14T02:42:49;99471.59;;;15.36;62.43
74915;BME280;63475;45.140;-75.616;2023-06-14T02:43:52;99468.41;;;15.32;61.79
74915;BME280;63475;45.140;-75.616;2023-06-14T02:44:55;99467.88;;;15.29;61.55
74915;BME280;63475;45.140;-75.616;2023-06-14T02:45:58;99463.69;;;15.26;61.48
74915;BME280;63475;45.140;-75.616;2023-06-14T02:47:01;99467.38;;;15.25;61.30
74915;BME280;63475;45.140;-75.616;2023-06-14T02:48:04;99461.69;;;15.20;61.46
74915;BME280;63475;45.140;-75.616;2023-06-14T02:49:07;99463.53;;;15.19;61.36
74915;BME280;63475;45.140;-75.616;2023-06-14T02:50:10;99464.88;;;15.15;61.50
74915;BME280;63475;45.140;-75.616;2023-06-14T02:51:13;99458.50;;;15.16;61.31
74915;BME280;63475;45.140;-75.616;2023-06-14T02:52:15;99460.50;;;15.14;61.14
74915;BME280;63475;45.140;-75.616;2023-06-14T02:53:18;99458.94;;;15.12;61.29
74915;BME280;63475;45.140;-75.616;2023-06-14T02:54:21;99458.94;;;15.12;61.44
74915;BME280;63475;45.140;-75.616;2023-06-14T02:55:23;99460.97;;;15.10;61.47
74915;BME280;63475;45.140;-75.616;2023-06-14T02:56:26;99462.97;;;15.08;61.52
74915;BME280;63475;45.140;-75.616;2023-06-14T02:57:30;99450.69;;;15.05;61.74
74915;BME280;63475;45.140;-75.616;2023-06-14T02:58:32;99451.53;;;15.06;61.49
74915;BME280;63475;45.140;-75.616;2023-06-14T02:59:35;99453.56;;;15.04;61.50
74915;BME280;63475;45.140;-75.616;2023-06-14T03:00:38;99451.88;;;15.03;61.66
74915;BME280;63475;45.140;-75.616;2023-06-14T03:01:41;99453.72;;;15.02;61.43
74915;BME280;63475;45.140;-75.616;2023-06-14T03:02:44;99449.34;;;15.01;61.58
74915;BME280;63475;45.140;-75.616;2023-06-14T03:03:47;99454.88;;;15.00;61.47
74915;BME280;63475;45.140;-75.616;2023-06-14T03:04:50;99451.56;;;14.98;61.29
74915;BME280;63475;45.140;-75.616;2023-06-14T03:05:53;99446.19;;;14.98;61.37
74915;BME280;63475;45.140;-75.616;2023-06-14T03:06:56;99449.88;;;14.97;61.43
74915;BME280;63475;45.140;-75.616;2023-06-14T03:07:59;99446.34;;;14.96;61.63
74915;BME280;63475;45.140;-75.616;2023-06-14T03:09:03;99449.88;;;14.97;61.39
74915;BME280;63475;45.140;-75.616;2023-06-14T03:10:11;99448.19;;;14.96;61.26
74915;BME280;63475;45.140;-75.616;2023-06-14T03:11:15;99449.19;;;14.95;61.32
74915;BME280;63475;45.140;-75.616;2023-06-14T03:12:19;99447.34;;;14.95;61.47
74915;BME280;63475;45.140;-75.616;2023-06-14T03:13:23;99447.50;;;14.94;61.93
74915;BME280;63475;45.140;-75.616;2023-06-14T03:14:25;99436.78;;;14.94;62.01
74915;BME280;63475;45.140;-75.616;2023-06-14T03:15:29;99438.78;;;14.91;62.64
74915;BME280;63475;45.140;-75.616;2023-06-14T03:16:31;99439.63;;;14.92;63.06
74915;BME280;63475;45.140;-75.616;2023-06-14T03:17:34;99433.06;;;14.86;63.33
74915;BME280;63475;45.140;-75.616;2023-06-14T03:18:37;99438.25;;;14.88;63.50
74915;BME280;63475;45.140;-75.616;2023-06-14T03:19:40;99438.25;;;14.88;63.84
74915;BME280;63475;45.140;-75.616;2023-06-14T03:20:43;99437.41;;;14.87;63.54
74915;BME280;63475;45.140;-75.616;2023-06-14T03:21:47;99433.06;;;14.86;63.64
74915;BME280;63475;45.140;-75.616;2023-06-14T03:22:51;99434.91;;;14.86;64.23
74915;BME280;63475;45.140;-75.616;2023-06-14T03:23:54;99425.00;;;14.86;63.86
74915;BME280;63475;45.140;-75.616;2023-06-14T03:24:56;99441.09;;;14.86;63.99
74915;BME280;63475;45.140;-75.616;2023-06-14T03:25:59;99435.75;;;14.86;63.70
74915;BME280;63475;45.140;-75.616;2023-06-14T03:27:03;99435.56;;;14.88;63.54
74915;BME280;63475;45.140;-75.616;2023-06-14T03:28:06;99430.53;;;14.85;63.07
74915;BME280;63475;45.140;-75.616;2023-06-14T03:29:09;99424.66;;;14.81;62.74
74915;BME280;63475;45.140;-75.616;2023-06-14T03:30:11;99430.34;;;14.78;62.38
74915;BME280;63475;45.140;-75.616;2023-06-14T03:31:15;99422.44;;;14.77;62.54
74915;BME280;63475;45.140;-75.616;2023-06-14T03:32:18;99426.34;;;14.74;62.46
74915;BME280;63475;45.140;-75.616;2023-06-14T03:33:21;99430.00;;;14.73;62.81
74915;BME280;63475;45.140;-75.616;2023-06-14T03:34:24;99423.97;;;14.71;62.94
74915;BME280;63475;45.140;-75.616;2023-06-14T03:35:28;99423.13;;;14.71;63.64
74915;BME280;63475;45.140;-75.616;2023-06-14T03:36:30;99427.34;;;14.73;63.99
74915;BME280;63475;45.140;-75.616;2023-06-14T03:37:35;99422.97;;;14.72;64.24
74915;BME280;63475;45.140;-75.616;2023-06-14T03:38:38;99419.59;;;14.70;64.72
74915;BME280;63475;45.140;-75.616;2023-06-14T03:39:41;99415.41;;;14.68;64.81
74915;BME280;63475;45.140;-75.616;2023-06-14T03:40:48;99415.41;;;14.68;64.97
74915;BME280;63475;45.140;-75.616;2023-06-14T03:41:51;99415.56;;;14.66;65.24
74915;BME280;63475;45.140;-75.616;2023-06-14T03:42:54;99417.72;;;14.63;65.03
74915;BME280;63475;45.140;-75.616;2023-06-14T03:43:57;99414.03;;;14.64;64.79
74915;BME280;63475;45.140;-75.616;2023-06-14T03:44:59;99418.56;;;14.63;64.51
74915;BME280;63475;45.140;-75.616;2023-06-14T03:46:02;99412.53;;;14.61;64.63
74915;BME280;63475;45.140;-75.616;2023-06-14T03:47:05;99413.84;;;14.57;64.89
74915;BME280;63475;45.140;-75.616;2023-06-14T03:48:09;99412.84;;;14.58;64.84
74915;BME280;63475;45.140;-75.616;2023-06-14T03:49:12;99414.19;;;14.54;64.76
74915;BME280;63475;45.140;-75.616;2023-06-14T03:50:15;99410.16;;;14.50;64.75
74915;BME280;63475;45.140;-75.616;2023-06-14T03:51:18;99409.31;;;14.49;64.35
74915;BME280;63475;45.140;-75.616;2023-06-14T03:52:20;99412.16;;;14.48;63.95
74915;BME280;63475;45.140;-75.616;2023-06-14T03:53:25;99409.81;;;14.45;64.28
74915;BME280;63475;45.140;-75.616;2023-06-14T03:54:30;99404.44;;;14.45;64.86
74915;BME280;63475;45.140;-75.616;2023-06-14T03:55:37;99407.13;;;14.45;65.23
74915;BME280;63475;45.140;-75.616;2023-06-14T03:57:00;99410.63;;;14.45;65.71
74915;BME280;63475;45.140;-75.616;2023-06-14T03:58:03;99407.44;;;14.42;65.55
74915;BME280;63475;45.140;-75.616;2023-06-14T03:59:05;99406.44;;;14.43;65.64
74915;BME280;63475;45.140;-75.616;2023-06-14T04:00:09;99405.59;;;14.42;65.73
74915;BME280;63475;45.140;-75.616;2023-06-14T04:01:13;99402.41;;;14.39;66.08
74915;BME280;63475;45.140;-75.616;2023-06-14T04:02:16;99401.72;;;14.37;66.25
74915;BME280;63475;45.140;-75.616;2023-06-14T04:03:20;99402.72;;;14.36;66.26
74915;BME280;63475;45.140;-75.616;2023-06-14T04:04:26;99408.41;;;14.33;66.43
74915;BME280;63475;45.140;-75.616;2023-06-14T04:05:31;99403.38;;;14.30;66.38
74915;BME280;63475;45.140;-75.616;2023-06-14T04:06:34;99403.72;;;14.27;66.39
74915;BME280;63475;45.140;-75.616;2023-06-14T04:07:37;99403.03;;;14.25;66.31
74915;BME280;63475;45.140;-75.616;2023-06-14T04:08:43;99400.50;;;14.23;66.66
74915;BME280;63475;45.140;-75.616;2023-06-14T04:09:48;99398.66;;;14.23;67.02
74915;BME280;63475;45.140;-75.616;2023-06-14T04:10:50;99404.34;;;14.20;66.76
74915;BME280;63475;45.140;-75.616;2023-06-14T04:11:53;99403.66;;;14.18;66.85
74915;BME280;63475;45.140;-75.616;2023-06-14T04:12:56;99397.78;;;14.15;66.70
74915;BME280;63475;45.140;-75.616;2023-06-14T04:13:59;99397.94;;;14.13;66.75
74915;BME280;63475;45.140;-75.616;2023-06-14T04:15:02;99396.41;;;14.11;67.03
74915;BME280;63475;45.140;-75.616;2023-06-14T04:16:21;99395.91;;;14.07;66.49
74915;BME280;63475;45.140;-75.616;2023-06-14T04:17:23;99399.59;;;14.06;66.61
74915;BME280;63475;45.140;-75.616;2023-06-14T04:18:26;99397.19;;;14.03;66.49
74915;BME280;63475;45.140;-75.616;2023-06-14T04:19:29;99403.72;;;14.01;66.68
74915;BME280;63475;45.140;-75.616;2023-06-14T04:20:32;99399.34;;;14.00;66.36
74915;BME280;63475;45.140;-75.616;2023-06-14T04:21:35;99402.19;;;13.98;66.51
74915;BME280;63475;45.140;-75.616;2023-06-14T04:22:38;99399.84;;;13.95;66.21
74915;BME280;63475;45.140;-75.616;2023-06-14T04:23:43;99400.00;;;13.94;66.33
74915;BME280;63475;45.140;-75.616;2023-06-14T04:24:46;99395.78;;;13.91;65.70
74915;BME280;63475;45.140;-75.616;2023-06-14T04:26:01;99394.25;;;13.88;65.62
74915;BME280;63475;45.140;-75.616;2023-06-14T04:27:04;99389.06;;;13.87;65.56
74915;BME280;63475;45.140;-75.616;2023-06-14T04:28:07;99392.75;;;13.86;65.51
74915;BME280;63475;45.140;-75.616;2023-06-14T04:29:16;99393.91;;;13.83;65.52
74915;BME280;63475;45.140;-75.616;2023-06-14T04:30:21;99396.06;;;13.80;65.23
74915;BME280;63475;45.140;-75.616;2023-06-14T04:31:29;99394.22;;;13.80;65.48
74915;BME280;63475;45.140;-75.616;2023-06-14T04:32:35;99397.06;;;13.79;65.38
74915;BME280;63475;45.140;-75.616;2023-06-14T04:33:41;99394.38;;;13.79;65.76
74915;BME280;63475;45.140;-75.616;2023-06-14T04:34:49;99388.34;;;13.77;65.86
74915;BME280;63475;45.140;-75.616;2023-06-14T04:35:55;99392.03;;;13.76;65.68
74915;BME280;63475;45.140;-75.616;2023-06-14T04:36:58;99393.03;;;13.75;65.52
74915;BME280;63475;45.140;-75.616;2023-06-14T04:38:03;99385.81;;;13.75;65.95
74915;BME280;63475;45.140;-75.616;2023-06-14T04:39:12;99387.66;;;13.75;66.99
74915;BME280;63475;45.140;-75.616;2023-06-14T04:40:15;99393.72;;;13.77;67.03
74915;BME280;63475;45.140;-75.616;2023-06-14T04:41:18;99389.34;;;13.76;66.76
74915;BME280;63475;45.140;-75.616;2023-06-14T04:42:22;99388.34;;;13.77;67.01
74915;BME280;63475;45.140;-75.616;2023-06-14T04:43:27;99383.31;;;13.74;66.99
74915;BME280;63475;45.140;-75.616;2023-06-14T04:44:30;99387.66;;;13.75;67.54
74915;BME280;63475;45.140;-75.616;2023-06-14T04:45:33;99390.03;;;13.78;66.89
74915;BME280;63475;45.140;-75.616;2023-06-14T04:46:36;99384.66;;;13.78;67.54
74915;BME280;63475;45.140;-75.616;2023-06-14T04:47:48;99381.00;;;13.79;67.11
74915;BME280;63475;45.140;-75.616;2023-06-14T04:48:52;99394.22;;;13.80;67.09
74915;BME280;63475;45.140;-75.616;2023-06-14T04:49:57;99381.69;;;13.81;66.67
74915;BME280;63475;45.140;-75.616;2023-06-14T04:51:02;99376.47;;;13.79;67.12
74915;BME280;63475;45.140;-75.616;2023-06-14T04:52:06;99385.66;;;13.77;67.29
74915;BME280;63475;45.140;-75.616;2023-06-14T04:53:09;99390.03;;;13.78;67.79
74915;BME280;63475;45.140;-75.616;2023-06-14T04:54:13;99388.03;;;13.80;68.15
74915;BME280;63475;45.140;-75.616;2023-06-14T04:55:16;99389.72;;;13.81;67.89
74915;BME280;63475;45.140;-75.616;2023-06-14T04:56:19;99397.06;;;13.79;67.60
74915;BME280;63475;45.140;-75.616;2023-06-14T04:57:21;99389.88;;;13.79;67.65
74915;BME280;63475;45.140;-75.616;2023-06-14T04:58:25;99390.03;;;13.78;67.83
74915;BME280;63475;45.140;-75.616;2023-06-14T04:59:27;99390.19;;;13.76;68.29
74915;BME280;63475;45.140;-75.616;2023-06-14T05:00:31;99389.50;;;13.74;68.16
74915;BME280;63475;45.140;-75.616;2023-06-14T05:01:34;99393.03;;;13.75;68.05
74915;BME280;63475;45.140;-75.616;2023-06-14T05:02:37;99387.66;;;13.75;68.50
74915;BME280;63475;45.140;-75.616;2023-06-14T05:03:40;99388.66;;;13.74;68.25
74915;BME280;63475;45.140;-75.616;2023-06-14T05:04:43;99390.66;;;13.72;68.04
74915;BME280;63475;45.140;-75.616;2023-06-14T05:05:46;99388.97;;;13.71;68.07
74915;BME280;63475;45.140;-75.616;2023-06-14T05:06:49;99388.97;;;13.71;68.33
74915;BME280;63475;45.140;-75.616;2023-06-14T05:07:51;99386.44;;;13.69;68.09
74915;BME280;63475;45.140;-75.616;2023-06-14T05:08:56;99388.28;;;13.69;68.15
74915;BME280;63475;45.140;-75.616;2023-06-14T05:09:59;99383.09;;;13.67;68.38
74915;BME280;63475;45.140;-75.616;2023-06-14T05:11:01;99382.25;;;13.67;68.14
74915;BME280;63475;45.140;-75.616;2023-06-14T05:12:04;99384.25;;;13.65;67.96
74915;BME280;63475;45.140;-75.616;2023-06-14T05:13:10;99379.88;;;13.64;68.23
74915;BME280;63475;45.140;-75.616;2023-06-14T05:14:14;99376.38;;;13.63;68.30
74915;BME280;63475;45.140;-75.616;2023-06-14T05:15:17;99379.06;;;13.63;68.83
74915;BME280;63475;45.140;-75.616;2023-06-14T05:16:19;99372.19;;;13.61;68.44
74915;BME280;63475;45.140;-75.616;2023-06-14T05:17:25;99372.50;;;13.58;68.59
74915;BME280;63475;45.140;-75.616;2023-06-14T05:18:30;99375.47;;;13.54;68.45
74915;BME280;63475;45.140;-75.616;2023-06-14T05:19:32;99365.06;;;13.51;68.93
74915;BME280;63475;45.140;-75.616;2023-06-14T05:20:35;99369.75;;;13.49;69.27
74915;BME280;63475;45.140;-75.616;2023-06-14T05:21:39;99372.44;;;13.49;69.58
74915;BME280;63475;45.140;-75.616;2023-06-14T05:22:44;99372.59;;;13.48;69.98
74915;BME280;63475;45.140;-75.616;2023-06-14T05:23:47;99376.25;;;13.47;69.79
74915;BME280;63475;45.140;-75.616;2023-06-14T05:24:49;99375.56;;;13.45;69.54
74915;BME280;63475;45.140;-75.616;2023-06-14T05:25:53;99381.94;;;13.44;69.63
74915;BME280;63475;45.140;-75.616;2023-06-14T05:26:56;99375.03;;;13.41;70.35
74915;BME280;63475;45.140;-75.616;2023-06-14T05:27:58;99372.38;;;13.41;69.98
74915;BME280;63475;45.140;-75.616;2023-06-14T05:29:01;99379.75;;;13.39;70.17
74915;BME280;63475;45.140;-75.616;2023-06-14T05:30:04;99371.88;;;13.38;70.09
74915;BME280;63475;45.140;-75.616;2023-06-14T05:31:07;99371.19;;;13.36;70.12
74915;BME280;63475;45.140;-75.616;2023-06-14T05:32:10;99366.97;;;13.33;70.14